Airfield :
LOGIN :

Register | Disclaimer

   EN    FR    IT 

 










Legend :    VFR   Marginal VFR   IFR   Intensive IFR   Very Intensive IFR
Visi :
Ceiling :
>= 8 km
>= 3000ft
5 to 8 km
1000 to 3000 ft
1500m to 5 km
500 to 1000 ft
800 to 1500m
200 to 500 ft
< 800m
< 200 ft
Symbols :   Thunderstorms  Fog  Heavy snow  Heavy precipitations  Wind > 20 kt
SIGMETs :     Misc.  Thunderstorms  Icing  Turbulence  Mountain Waves  Volcanic Ashes






- Airport Elevation : 755 ft
- IATA code : DRS


EDDC - Dresden Klotzsche

CURRENT METAR :
  • 050350Z 27005KT 240V310 6000 SCT009 BKN041 13/12 Q0994 TEMPO 4000 BR BKN009

EXPIRED METARs :
  • 050320Z 25003KT 220V290 7000 SCT011 BKN040 13/12 Q0994
  • 050250Z 25005KT 190V310 9000 SCT011 BKN048 13/12 Q0994
  • 050220Z 25004KT 200V300 9999 FEW009 13/13 Q0994
  • 050150Z 25006KT 220V290 9999 FEW011 SCT020 14/13 Q0993
  • 050120Z 26006KT 210V300 9999 FEW010 SCT025 BKN049 14/13 Q0994

TAF TAF EDDC
Valid from the 05 at 00:00 until the 06 at 00:00 UTC


042300Z 0500/0524 21007KT 9999 BKN040
BECMG 0500/0502 27007KT
BECMG 0515/0517 21010KT
TEMPO 0518/0524 23015G25KT 3500 TSRA BKN012 SCT020CB



MET'MAP, your aeronautical weather chart ! - Copyright ORBIFLY December 2007 - Disclaimer

ORBIFLY MET'MAP TEAM :

Programming & Development : Alexandra Zaïnal
Concept & original design : Baudouin d'Aumeries
Assistance for programming : Marc-Olivier Méhu
Technical & hardware support : Manuel Goepfert

Contact : metmap@orbifly.com




SOURCES & CREDITS :

   NOAA